Time;durP1;ratioP1;P1;durP2;ratioP2;P2;SDS_P1;SDS_P2;PMS_P1;PMS_P2;Temp;Humidity;BMP_temperature;BMP_pressure;BME280_temperature;BME280_humidity;BME280_pressure;Samples;Min_cycle;Max_cycle;Signal;HPM_P1;HPM_P2
2023/04/09 00:00:35;;;;;;;11.98;8.55;;;19.70;55.40;;;;;;5116141;28;20047;-61
2023/04/09 00:03:00;;;;;;;11.35;8.38;;;19.70;55.40;;;;;;5116258;28;20118;-61
2023/04/09 00:05:26;;;;;;;12.07;8.55;;;19.70;55.40;;;;;;5115216;28;20185;-61
2023/04/09 00:07:51;;;;;;;11.48;7.85;;;19.60;55.30;;;;;;5116381;28;20043;-61
2023/04/09 00:10:17;;;;;;;11.63;8.63;;;19.60;55.30;;;;;;5115860;28;20048;-61
2023/04/09 00:12:42;;;;;;;13.82;8.60;;;19.60;55.30;;;;;;5115706;28;20039;-61
2023/04/09 00:15:08;;;;;;;11.73;8.35;;;19.60;55.30;;;;;;5114066;28;20040;-61
2023/04/09 00:17:34;;;;;;;12.00;8.30;;;19.60;55.30;;;;;;5115896;28;20039;-61
2023/04/09 00:20:00;;;;;;;12.15;8.10;;;19.60;55.30;;;;;;5114959;28;20551;-61
2023/04/09 00:22:25;;;;;;;11.00;8.02;;;19.60;55.30;;;;;;5114355;28;20043;-61
2023/04/09 00:24:51;;;;;;;12.27;8.05;;;19.60;55.20;;;;;;5102625;28;20036;-61
2023/04/09 00:27:16;;;;;;;10.70;7.80;;;19.60;55.20;;;;;;5094412;28;20487;-61
2023/04/09 00:29:42;;;;;;;11.18;8.00;;;19.60;55.20;;;;;;5106028;28;20064;-61
2023/04/09 00:32:07;;;;;;;10.85;8.35;;;19.60;55.20;;;;;;5115445;28;20094;-61
2023/04/09 00:34:33;;;;;;;11.60;7.85;;;19.50;55.10;;;;;;5104789;28;20044;-61
2023/04/09 00:36:58;;;;;;;10.25;7.45;;;19.50;55.10;;;;;;5094887;28;20097;-61
2023/04/09 00:39:24;;;;;;;11.38;8.25;;;19.50;55.10;;;;;;5095340;28;20076;-61
2023/04/09 00:41:54;;;;;;;12.18;7.72;;;19.50;55.10;;;;;;5094815;28;20051;-61
2023/04/09 00:44:20;;;;;;;10.57;8.40;;;19.50;55.10;;;;;;5102262;28;20105;-62
2023/04/09 00:46:45;;;;;;;11.63;8.00;;;19.50;55.00;;;;;;5114549;28;20180;-61
2023/04/09 00:49:11;;;;;;;11.13;7.93;;;19.50;55.10;;;;;;5086862;28;20123;-61
2023/04/09 00:51:37;;;;;;;10.75;7.90;;;19.50;55.00;;;;;;5073521;28;20071;-61
2023/04/09 00:54:03;;;;;;;9.70;7.65;;;19.50;55.00;;;;;;5077334;28;20064;-61
2023/04/09 00:56:28;;;;;;;11.07;7.88;;;19.50;55.00;;;;;;5110601;28;20098;-61
2023/04/09 00:58:54;;;;;;;11.93;8.15;;;19.50;55.10;;;;;;5110671;28;20447;-61
2023/04/09 01:01:20;;;;;;;11.50;7.35;;;19.50;55.10;;;;;;5092729;28;20040;-61
2023/04/09 01:03:45;;;;;;;10.70;7.72;;;19.50;55.10;;;;;;5094896;28;20388;-61
2023/04/09 01:06:17;;;;;;;10.55;7.85;;;19.50;55.10;;;;;;5094493;28;20052;-61
2023/04/09 01:08:48;;;;;;;10.60;7.57;;;19.40;55.00;;;;;;5060932;28;20032;-61
2023/04/09 01:11:37;;;;;;;10.00;7.30;;;19.50;55.00;;;;;;5094602;28;20491;-62
2023/04/09 01:14:20;;;;;;;10.98;7.38;;;19.40;54.90;;;;;;5082255;28;20048;-62
2023/04/09 01:16:48;;;;;;;10.18;7.07;;;19.40;55.00;;;;;;5094026;28;20120;-61
2023/04/09 01:19:52;;;;;;;10.93;7.53;;;19.40;54.90;;;;;;5098458;28;20047;-62
2023/04/09 01:22:24;;;;;;;10.00;6.97;;;19.40;54.90;;;;;;5071758;28;20503;-61
2023/04/09 01:25:15;;;;;;;10.68;7.93;;;19.40;55.00;;;;;;5066147;28;20060;-61
2023/04/09 01:27:46;;;;;;;10.95;7.20;;;19.40;54.90;;;;;;5065152;28;20094;-61
2023/04/09 01:30:11;;;;;;;10.18;7.30;;;19.40;54.90;;;;;;5055017;28;20098;-62
2023/04/09 01:32:37;;;;;;;10.02;6.97;;;19.40;54.90;;;;;;5072660;28;20045;-62
2023/04/09 01:35:03;;;;;;;9.93;6.95;;;19.40;54.90;;;;;;5083651;28;20487;-61
2023/04/09 01:37:29;;;;;;;10.65;7.45;;;19.40;54.90;;;;;;5092015;28;20033;-62
2023/04/09 01:39:54;;;;;;;9.68;7.07;;;19.30;54.80;;;;;;5072505;28;20047;-62
2023/04/09 01:42:20;;;;;;;10.27;7.28;;;19.30;54.80;;;;;;5072610;28;20045;-62
2023/04/09 01:44:45;;;;;;;9.15;6.60;;;19.30;54.80;;;;;;5081438;28;20047;-62
2023/04/09 01:47:11;;;;;;;9.43;7.22;;;19.30;54.70;;;;;;5075773;28;20055;-62
2023/04/09 01:49:38;;;;;;;9.43;6.90;;;19.30;54.70;;;;;;5075630;28;20051;-62
2023/04/09 01:52:04;;;;;;;9.57;7.60;;;19.30;54.80;;;;;;5075165;28;20040;-62
2023/04/09 01:54:30;;;;;;;9.65;7.07;;;19.30;54.70;;;;;;5093933;28;20104;-62
2023/04/09 01:56:56;;;;;;;10.25;7.05;;;19.30;54.70;;;;;;5092940;28;20048;-62
2023/04/09 01:59:21;;;;;;;10.27;7.07;;;19.30;54.70;;;;;;5075689;28;20090;-62
2023/04/09 02:02:00;;;;;;;9.38;7.25;;;19.30;54.70;;;;;;5093709;28;20455;-61
2023/04/09 02:04:33;;;;;;;9.80;7.10;;;19.30;54.70;;;;;;5091007;28;20048;-61
2023/04/09 02:07:08;;;;;;;9.00;7.18;;;19.30;54.70;;;;;;5091258;28;20055;-62
2023/04/09 02:09:36;;;;;;;8.98;6.95;;;19.20;54.60;;;;;;5093676;28;20032;-62
2023/04/09 02:12:02;;;;;;;9.70;7.00;;;19.20;54.60;;;;;;5092752;28;20051;-61
2023/04/09 02:14:29;;;;;;;10.27;6.80;;;19.20;54.70;;;;;;5093683;28;20040;-62
2023/04/09 02:16:55;;;;;;;10.18;7.47;;;19.20;54.60;;;;;;5075539;28;20503;-62
2023/04/09 02:19:20;;;;;;;10.45;7.13;;;19.20;54.60;;;;;;5091577;28;20044;-62
2023/04/09 02:21:46;;;;;;;10.10;6.85;;;19.20;54.60;;;;;;5092979;28;20495;-61
2023/04/09 02:24:11;;;;;;;8.77;6.53;;;19.20;54.60;;;;;;5092831;28;20044;-62
2023/04/09 02:26:37;;;;;;;9.77;7.05;;;19.20;54.60;;;;;;5092477;28;20044;-62
2023/04/09 02:29:02;;;;;;;10.45;6.55;;;19.20;54.60;;;;;;5092976;28;20040;-62
2023/04/09 02:31:28;;;;;;;8.27;6.53;;;19.20;54.60;;;;;;5092683;28;20864;-62
2023/04/09 02:33:54;;;;;;;8.68;6.53;;;19.20;54.60;;;;;;5092575;28;20119;-62
2023/04/09 02:36:19;;;;;;;9.25;6.80;;;19.20;54.70;;;;;;5110398;28;20479;-62
2023/04/09 02:38:45;;;;;;;9.70;6.53;;;19.20;54.70;;;;;;5113359;28;20047;-62
2023/04/09 02:41:11;;;;;;;8.57;6.20;;;19.20;54.70;;;;;;5112075;28;20048;-61
2023/04/09 02:43:36;;;;;;;9.07;6.20;;;19.20;54.70;;;;;;5111785;28;20053;-62
2023/04/09 02:46:02;;;;;;;9.15;6.38;;;19.20;54.70;;;;;;5111363;28;20126;-62
2023/04/09 02:48:27;;;;;;;9.77;6.90;;;19.20;54.70;;;;;;5112899;28;20043;-62
2023/04/09 02:50:53;;;;;;;9.40;6.43;;;19.20;54.70;;;;;;5111721;28;20367;-62
2023/04/09 02:53:20;;;;;;;9.85;6.72;;;19.20;54.70;;;;;;5110926;28;20036;-62
2023/04/09 02:55:46;;;;;;;8.68;6.57;;;19.20;54.70;;;;;;5111573;28;20069;-62
2023/04/09 02:58:11;;;;;;;9.45;7.03;;;19.20;54.60;;;;;;5112752;28;20036;-62
2023/04/09 03:00:37;;;;;;;9.35;6.80;;;19.20;54.60;;;;;;5112027;28;20093;-62
2023/04/09 03:03:03;;;;;;;8.35;6.50;;;19.20;55.40;;;;;;5112940;28;20135;-61
2023/04/09 03:05:28;;;;;;;8.95;6.40;;;19.20;54.70;;;;;;5103204;28;20039;-62
2023/04/09 03:07:54;;;;;;;10.15;6.65;;;19.30;54.70;;;;;;5095115;28;20043;-62
2023/04/09 03:10:20;;;;;;;8.85;6.40;;;19.30;54.80;;;;;;5105039;28;20040;-62
2023/04/09 03:12:46;;;;;;;8.63;6.40;;;19.30;54.80;;;;;;5092564;28;20036;-61
2023/04/09 03:15:12;;;;;;;8.82;6.22;;;19.30;54.80;;;;;;5091541;28;20040;-61
2023/04/09 03:17:38;;;;;;;8.93;5.80;;;19.30;54.80;;;;;;5092402;28;20174;-62
2023/04/09 03:20:05;;;;;;;9.57;6.50;;;19.30;54.80;;;;;;5092140;28;20028;-62
2023/04/09 03:22:37;;;;;;;7.78;5.60;;;19.30;54.80;;;;;;5091499;28;20429;-61
2023/04/09 03:25:03;;;;;;;8.70;6.32;;;19.30;54.80;;;;;;5092568;28;20028;-61
2023/04/09 03:27:29;;;;;;;8.45;6.07;;;19.40;54.90;;;;;;5090297;28;20044;-61
2023/04/09 03:29:55;;;;;;;8.20;6.10;;;19.30;54.80;;;;;;5091265;28;20115;-61
2023/04/09 03:32:20;;;;;;;9.27;6.30;;;19.40;54.80;;;;;;5092372;28;20040;-62
2023/04/09 03:34:46;;;;;;;7.55;6.10;;;19.40;54.80;;;;;;5092506;28;20039;-61
2023/04/09 03:37:11;;;;;;;9.27;6.35;;;19.40;54.80;;;;;;5091213;28;20430;-61
2023/04/09 03:39:37;;;;;;;9.75;7.03;;;19.40;54.80;;;;;;5092474;28;20090;-61
2023/04/09 03:42:03;;;;;;;7.50;5.18;;;19.40;54.80;;;;;;5092064;28;20086;-62
2023/04/09 03:44:28;;;;;;;8.43;5.78;;;19.40;54.80;;;;;;5091709;28;20071;-62
2023/04/09 03:46:54;;;;;;;7.97;5.78;;;19.50;54.90;;;;;;5092424;28;20044;-62
2023/04/09 03:49:20;;;;;;;9.48;6.00;;;19.50;54.90;;;;;;5092460;28;20067;-62
2023/04/09 03:51:45;;;;;;;7.70;5.93;;;19.50;54.80;;;;;;5091693;28;20483;-62
2023/04/09 03:54:11;;;;;;;8.98;6.13;;;19.50;54.80;;;;;;5092147;28;20127;-62
2023/04/09 03:56:36;;;;;;;9.18;6.57;;;19.50;54.80;;;;;;5091474;28;20036;-62
2023/04/09 03:59:02;;;;;;;7.72;5.40;;;19.60;54.90;;;;;;5091719;28;20048;-62
2023/04/09 04:01:27;;;;;;;6.93;5.43;;;19.60;54.80;;;;;;5089298;28;20040;-62
2023/04/09 04:03:53;;;;;;;7.75;5.82;;;19.60;54.80;;;;;;5084634;28;20047;-62
2023/04/09 04:06:19;;;;;;;8.65;6.18;;;19.60;54.80;;;;;;5089886;28;20044;-62
2023/04/09 04:08:44;;;;;;;8.23;5.82;;;19.60;54.80;;;;;;5092010;28;20118;-62
2023/04/09 04:11:10;;;;;;;8.98;6.20;;;19.60;54.80;;;;;;5091002;28;20127;-63
2023/04/09 04:13:35;;;;;;;7.32;5.75;;;19.60;54.80;;;;;;5092141;28;20044;-62
2023/04/09 04:16:01;;;;;;;7.95;6.28;;;19.70;54.80;;;;;;5100259;28;20075;-64
2023/04/09 04:18:26;;;;;;;8.35;5.68;;;19.70;54.80;;;;;;5111816;28;20047;-62
2023/04/09 04:20:52;;;;;;;8.07;6.05;;;19.70;54.80;;;;;;5111955;28;20517;-62
2023/04/09 04:23:17;;;;;;;7.55;5.75;;;19.70;54.80;;;;;;5111724;28;20479;-62
2023/04/09 04:25:43;;;;;;;8.00;5.80;;;19.70;54.80;;;;;;5111287;28;20461;-62
2023/04/09 04:28:09;;;;;;;8.20;5.68;;;19.70;54.80;;;;;;5111822;28;20043;-62
2023/04/09 04:30:34;;;;;;;7.85;5.40;;;19.70;54.70;;;;;;5114132;28;20047;-62
2023/04/09 04:33:00;;;;;;;8.15;5.68;;;19.70;54.80;;;;;;5113548;28;20054;-62
2023/04/09 04:35:26;;;;;;;8.23;5.80;;;19.70;54.70;;;;;;5115761;28;20078;-62
2023/04/09 04:37:51;;;;;;;7.75;5.97;;;19.80;54.80;;;;;;5114509;28;20071;-62
2023/04/09 04:40:17;;;;;;;7.65;5.55;;;19.80;54.80;;;;;;5114795;28;20055;-62
2023/04/09 04:42:42;;;;;;;8.45;5.75;;;19.80;54.80;;;;;;5115413;28;20048;-62
2023/04/09 04:45:08;;;;;;;7.45;5.35;;;19.80;54.80;;;;;;5115279;28;20035;-62
2023/04/09 04:47:34;;;;;;;8.48;5.43;;;19.80;54.80;;;;;;5114932;28;20035;-62
2023/04/09 04:50:00;;;;;;;8.68;5.97;;;19.80;54.80;;;;;;5115551;28;20386;-62
2023/04/09 04:52:25;;;;;;;8.02;5.65;;;19.80;54.80;;;;;;5113794;28;20035;-62
2023/04/09 04:54:51;;;;;;;7.82;5.47;;;19.80;54.70;;;;;;5113416;28;20191;-62
2023/04/09 04:57:16;;;;;;;8.02;5.82;;;19.80;54.70;;;;;;5114732;28;20040;-62
2023/04/09 04:59:42;;;;;;;7.82;5.40;;;19.80;54.70;;;;;;5114685;28;20375;-62
2023/04/09 05:02:08;;;;;;;8.88;6.45;;;19.80;54.60;;;;;;5112998;28;20206;-62
2023/04/09 05:04:33;;;;;;;8.77;5.88;;;19.90;54.70;;;;;;5114131;28;20032;-62
2023/04/09 05:06:59;;;;;;;8.60;5.43;;;19.90;54.70;;;;;;5114128;28;20116;-62
2023/04/09 05:09:25;;;;;;;7.80;5.60;;;19.90;54.70;;;;;;5113616;28;20047;-62
2023/04/09 05:11:50;;;;;;;7.40;5.57;;;19.90;54.70;;;;;;5114704;28;20470;-62
2023/04/09 05:14:16;;;;;;;8.02;5.65;;;19.90;54.70;;;;;;5114252;28;20040;-62
2023/04/09 05:16:41;;;;;;;8.23;6.18;;;19.90;54.70;;;;;;5115015;28;20501;-61
2023/04/09 05:19:07;;;;;;;9.07;5.50;;;19.90;54.70;;;;;;5114950;28;20115;-62
2023/04/09 05:21:33;;;;;;;8.43;5.68;;;19.90;54.70;;;;;;5113470;28;20083;-62
2023/04/09 05:23:58;;;;;;;8.55;5.80;;;19.90;54.70;;;;;;5113404;28;20047;-62
2023/04/09 05:26:24;;;;;;;9.88;5.78;;;19.90;54.60;;;;;;5114685;28;20482;-62
2023/04/09 05:28:49;;;;;;;8.30;5.38;;;19.90;54.60;;;;;;5112865;28;20398;-62
2023/04/09 05:31:15;;;;;;;11.23;6.10;;;19.90;54.60;;;;;;5113931;28;20038;-62
2023/04/09 05:33:41;;;;;;;10.27;6.13;;;19.90;54.60;;;;;;5113345;28;20044;-62
2023/04/09 05:36:06;;;;;;;9.80;5.85;;;19.90;54.50;;;;;;5111984;28;20036;-62
2023/04/09 05:38:32;;;;;;;10.40;5.95;;;20.00;54.50;;;;;;5114529;28;20168;-61
2023/04/09 05:40:58;;;;;;;8.63;5.80;;;20.00;54.60;;;;;;5113768;28;20159;-61
2023/04/09 05:43:24;;;;;;;11.43;5.85;;;20.00;54.60;;;;;;5113797;28;20051;-62
2023/04/09 05:45:49;;;;;;;10.00;6.13;;;20.00;54.60;;;;;;5114499;28;20421;-61
2023/04/09 05:48:17;;;;;;;9.05;5.80;;;20.00;54.60;;;;;;5112678;28;20164;-62
2023/04/09 05:50:48;;;;;;;8.93;5.57;;;20.00;54.60;;;;;;5113679;28;20031;-62
2023/04/09 05:53:14;;;;;;;8.75;5.97;;;20.00;54.70;;;;;;5098011;28;20417;-62
2023/04/09 05:55:40;;;;;;;9.38;6.10;;;20.00;54.70;;;;;;5091971;28;20139;-62
2023/04/09 05:58:05;;;;;;;8.60;5.82;;;20.00;54.80;;;;;;5092495;28;20075;-60
2023/04/09 06:00:31;;;;;;;8.77;5.88;;;20.00;54.80;;;;;;5092709;28;20193;-61
2023/04/09 06:02:56;;;;;;;9.55;6.22;;;20.00;54.90;;;;;;5090221;28;20043;-60
2023/04/09 06:05:22;;;;;;;8.48;6.13;;;20.10;55.00;;;;;;5083513;28;20071;-60
2023/04/09 06:07:47;;;;;;;8.38;5.85;;;20.10;55.10;;;;;;5111394;28;20130;-63
2023/04/09 06:10:13;;;;;;;9.50;6.13;;;20.10;55.10;;;;;;5112450;28;20043;-60
2023/04/09 06:12:39;;;;;;;10.18;6.38;;;20.10;55.10;;;;;;5096326;28;20044;-60
2023/04/09 06:15:05;;;;;;;13.07;5.75;;;20.10;55.10;;;;;;5092738;28;20093;-60
2023/04/09 06:17:30;;;;;;;10.10;5.72;;;20.10;55.20;;;;;;5098199;28;20555;-60
2023/04/09 06:19:56;;;;;;;7.78;5.45;;;20.20;55.30;;;;;;5091991;28;20143;-60
2023/04/09 06:22:21;;;;;;;8.45;5.97;;;20.20;55.30;;;;;;5090909;28;20063;-60
2023/04/09 06:24:47;;;;;;;10.10;6.32;;;20.20;55.40;;;;;;5087894;28;20040;-60
2023/04/09 06:27:12;;;;;;;8.02;5.68;;;20.20;55.50;;;;;;5085903;28;20059;-61
2023/04/09 06:29:38;;;;;;;8.73;6.10;;;20.20;55.50;;;;;;5092672;28;20040;-61
2023/04/09 06:32:04;;;;;;;9.68;6.00;;;20.20;55.70;;;;;;5085937;28;20068;-60
2023/04/09 06:34:30;;;;;;;9.98;6.10;;;20.20;55.70;;;;;;5091302;28;20097;-61
2023/04/09 06:36:55;;;;;;;10.00;6.68;;;20.20;55.60;;;;;;5086791;28;20044;-61
2023/04/09 06:39:21;;;;;;;10.70;6.28;;;20.30;55.70;;;;;;5088233;28;20040;-60
2023/04/09 06:41:47;;;;;;;10.98;6.68;;;20.30;55.80;;;;;;5089294;28;20101;-61
2023/04/09 06:44:12;;;;;;;9.07;6.00;;;20.30;55.70;;;;;;5088748;28;20123;-61
2023/04/09 06:46:38;;;;;;;13.38;6.40;;;20.30;55.60;;;;;;5090645;28;20082;-61
2023/04/09 06:49:06;;;;;;;10.25;6.60;;;20.30;55.60;;;;;;5092167;28;20445;-61
2023/04/09 06:51:32;;;;;;;;;;;20.30;55.60;;;;;;5093162;28;20052;-60
2023/04/09 06:53:57;;;;;;;8.65;6.60;;;20.30;55.60;;;;;;5091483;28;20263;-60
2023/04/09 06:56:23;;;;;;;9.93;6.55;;;20.30;55.60;;;;;;5092847;28;20100;-61
2023/04/09 06:58:48;;;;;;;8.57;6.63;;;20.40;55.70;;;;;;5092938;28;20040;-60
2023/04/09 07:01:16;;;;;;;11.35;6.72;;;20.40;55.80;;;;;;5090624;28;20048;-60
2023/04/09 07:03:41;;;;;;;11.45;7.10;;;20.40;55.90;;;;;;5091706;28;20600;-60
2023/04/09 07:06:07;;;;;;;10.43;6.60;;;20.40;55.90;;;;;;5092344;28;20131;-60
2023/04/09 07:08:32;;;;;;;9.43;6.78;;;20.40;55.90;;;;;;5091855;28;20491;-60
2023/04/09 07:10:58;;;;;;;11.75;6.72;;;20.40;55.90;;;;;;5090800;28;20059;-60
2023/04/09 07:13:23;;;;;;;10.88;6.63;;;20.40;55.90;;;;;;5094618;28;20475;-60
2023/04/09 07:15:49;;;;;;;9.45;6.70;;;20.40;55.70;;;;;;5113156;28;20467;-60
2023/04/09 07:18:14;;;;;;;11.48;7.30;;;20.50;55.90;;;;;;5111902;28;20414;-59
2023/04/09 07:20:40;;;;;;;10.32;6.57;;;20.50;55.80;;;;;;5110906;28;20055;-60
2023/04/09 07:23:06;;;;;;;12.95;6.88;;;20.50;55.80;;;;;;5093645;28;20395;-59
2023/04/09 07:25:31;;;;;;;9.45;6.95;;;20.50;55.80;;;;;;5088849;28;20059;-61
2023/04/09 07:27:57;;;;;;;11.40;6.55;;;20.50;55.70;;;;;;5086659;28;20479;-61
2023/04/09 07:30:22;;;;;;;9.20;7.07;;;20.50;55.70;;;;;;5086660;28;20097;-60
2023/04/09 07:32:48;;;;;;;10.55;7.63;;;20.50;55.70;;;;;;5084137;28;20047;-61
2023/04/09 07:35:14;;;;;;;11.13;6.47;;;20.50;55.60;;;;;;5090983;28;20109;-61
2023/04/09 07:37:39;;;;;;;11.65;7.57;;;20.50;55.60;;;;;;5092082;28;20047;-60
2023/04/09 07:40:07;;;;;;;11.32;7.07;;;20.50;55.60;;;;;;5092218;28;20093;-60
2023/04/09 07:42:32;;;;;;;9.18;6.80;;;20.50;55.60;;;;;;5089436;28;20059;-61
2023/04/09 07:44:58;;;;;;;10.93;7.50;;;20.50;55.50;;;;;;5090747;28;20040;-61
2023/04/09 07:47:25;;;;;;;9.65;6.68;;;20.50;55.60;;;;;;5090855;28;20044;-61
2023/04/09 07:49:50;;;;;;;13.57;7.97;;;20.50;55.60;;;;;;5090810;28;20061;-61
2023/04/09 07:52:16;;;;;;;11.68;7.55;;;20.50;55.60;;;;;;5090863;28;20048;-61
2023/04/09 07:54:41;;;;;;;16.58;8.50;;;20.50;55.60;;;;;;5092398;28;20040;-60
2023/04/09 07:57:07;;;;;;;13.27;8.13;;;20.50;55.50;;;;;;5091445;28;20387;-63
2023/04/09 07:59:36;;;;;;;16.75;8.85;;;20.50;55.60;;;;;;5091635;28;20447;-60
2023/04/09 08:02:01;;;;;;;20.05;8.10;;;20.50;55.70;;;;;;5091923;28;20036;-63
2023/04/09 08:04:27;;;;;;;17.83;8.73;;;20.50;55.80;;;;;;5093105;28;20032;-61
2023/04/09 08:06:53;;;;;;;15.10;8.40;;;20.50;55.80;;;;;;5097949;27;20134;-63
2023/04/09 08:09:19;;;;;;;17.58;9.48;;;20.50;55.90;;;;;;5095432;28;20064;-62
2023/04/09 08:11:46;;;;;;;15.38;8.50;;;20.60;56.00;;;;;;5092406;28;20036;-63
2023/04/09 08:14:12;;;;;;;15.85;8.70;;;20.60;56.10;;;;;;5095174;28;20043;-63
2023/04/09 08:16:45;;;;;;;16.20;8.95;;;20.60;56.10;;;;;;5093306;28;20047;-61
2023/04/09 08:19:11;;;;;;;16.48;8.82;;;20.60;56.20;;;;;;5094095;28;20047;-61
2023/04/09 08:21:38;;;;;;;16.63;8.85;;;20.60;56.20;;;;;;5094341;28;20528;-61
2023/04/09 08:24:04;;;;;;;12.07;8.27;;;20.60;56.20;;;;;;5093412;28;20044;-61
2023/04/09 08:26:30;;;;;;;15.50;8.68;;;20.70;56.30;;;;;;5094640;28;20055;-60
2023/04/09 08:28:56;;;;;;;16.52;9.10;;;20.70;56.30;;;;;;5095248;28;20040;-66
2023/04/09 08:31:21;;;;;;;18.40;8.57;;;20.70;56.20;;;;;;5093964;28;20052;-61
2023/04/09 08:33:47;;;;;;;15.38;9.63;;;20.70;56.10;;;;;;5093621;28;20146;-61
2023/04/09 08:36:13;;;;;;;19.55;9.40;;;20.70;56.20;;;;;;5095422;28;20054;-61
2023/04/09 08:38:39;;;;;;;13.15;8.95;;;20.70;56.30;;;;;;5094469;28;20051;-62
2023/04/09 08:41:05;;;;;;;14.85;9.20;;;20.70;56.30;;;;;;5094500;28;20115;-61
2023/04/09 08:43:31;;;;;;;14.15;9.95;;;20.70;56.20;;;;;;5094581;28;20127;-61
2023/04/09 08:45:58;;;;;;;15.30;9.35;;;20.80;56.30;;;;;;5092293;28;20036;-63
2023/04/09 08:48:24;;;;;;;14.48;9.27;;;20.80;56.30;;;;;;5088816;28;20044;-63
2023/04/09 08:50:50;;;;;;;15.57;9.25;;;20.80;56.20;;;;;;5092937;28;20067;-62
2023/04/09 08:53:15;;;;;;;16.63;9.73;;;20.80;56.20;;;;;;5093917;28;20120;-64
2023/04/09 08:55:46;;;;;;;18.25;11.00;;;20.80;56.10;;;;;;5093464;28;20044;-65
2023/04/09 08:58:12;;;;;;;16.90;10.45;;;20.80;55.50;;;;;;5093635;28;20055;-60
2023/04/09 09:00:37;;;;;;;19.98;10.75;;;20.80;55.40;;;;;;5094000;28;20119;-64
2023/04/09 09:03:04;;;;;;;22.02;10.85;;;20.80;55.40;;;;;;5094416;28;20044;-63
2023/04/09 09:05:38;;;;;;;19.35;10.30;;;20.80;55.40;;;;;;5092920;28;20040;-62
2023/04/09 09:08:04;;;;;;;22.65;9.70;;;20.80;55.50;;;;;;5092584;28;20441;-62
2023/04/09 09:10:40;;;;;;;16.10;10.68;;;20.80;55.70;;;;;;5094400;28;20040;-60
2023/04/09 09:13:22;;;;;;;18.95;10.20;;;20.90;56.20;;;;;;5091651;28;20044;-61
2023/04/09 09:15:51;;;;;;;19.17;9.95;;;21.00;56.50;;;;;;5094419;28;20063;-61
2023/04/09 09:18:18;;;;;;;19.58;10.32;;;21.00;56.50;;;;;;5094425;28;20044;-60
2023/04/09 09:20:43;;;;;;;20.45;9.82;;;21.00;56.70;;;;;;5093721;28;20052;-61
2023/04/09 09:23:09;;;;;;;22.73;10.27;;;21.00;56.90;;;;;;5093253;28;20480;-60
2023/04/09 09:25:38;;;;;;;28.00;10.88;;;21.00;57.00;;;;;;5094108;28;20564;-63
2023/04/09 09:28:11;;;;;;;24.20;10.25;;;21.00;57.20;;;;;;5093080;28;20399;-60
2023/04/09 09:30:38;;;;;;;27.05;10.40;;;21.10;57.30;;;;;;5092859;28;20036;-63
2023/04/09 09:33:07;;;;;;;24.13;10.95;;;21.00;57.30;;;;;;5093997;28;20442;-61
2023/04/09 09:35:52;;;;;;;22.83;10.98;;;21.10;57.60;;;;;;5093774;28;20048;-61
2023/04/09 09:38:18;;;;;;;26.13;11.38;;;21.10;57.80;;;;;;5092471;28;20051;-61
2023/04/09 09:40:44;;;;;;;21.55;10.73;;;21.10;57.90;;;;;;5093612;28;20043;-61
2023/04/09 09:43:10;;;;;;;20.70;10.43;;;21.10;58.00;;;;;;5093014;28;20047;-60
2023/04/09 09:45:37;;;;;;;21.67;9.60;;;21.10;58.20;;;;;;5092957;28;20123;-60
2023/04/09 09:48:04;;;;;;;29.58;11.32;;;21.10;58.30;;;;;;5093498;28;20467;-61
2023/04/09 09:50:30;;;;;;;26.42;11.07;;;21.10;58.50;;;;;;5093986;28;20111;-62
2023/04/09 09:53:04;;;;;;;26.75;10.43;;;21.20;58.60;;;;;;5092070;28;20111;-62
2023/04/09 09:55:31;;;;;;;30.50;10.82;;;21.20;58.90;;;;;;5093299;28;20130;-61
2023/04/09 09:57:57;;;;;;;18.15;10.57;;;21.10;58.90;;;;;;5092160;28;20143;-62
2023/04/09 10:00:24;;;;;;;37.42;11.52;;;21.20;59.00;;;;;;5076134;28;20052;-61
2023/04/09 10:02:58;;;;;;;27.65;10.98;;;21.20;59.10;;;;;;5091950;28;20047;-62
2023/04/09 10:05:26;;;;;;;27.02;10.38;;;21.20;59.10;;;;;;5059139;28;20046;-61
2023/04/09 10:07:56;;;;;;;25.08;10.18;;;21.30;59.10;;;;;;5092869;28;20046;-61
2023/04/09 10:10:22;;;;;;;28.60;9.63;;;21.30;59.90;;;;;;5075153;28;20044;-60
2023/04/09 10:12:48;;;;;;;27.60;10.60;;;21.30;59.20;;;;;;5091968;28;20040;-65
2023/04/09 10:15:13;;;;;;;24.35;10.32;;;21.30;59.20;;;;;;5093558;28;20040;-61
2023/04/09 10:17:39;;;;;;;28.55;10.82;;;21.30;59.20;;;;;;5091637;28;20044;-66
2023/04/09 10:20:27;;;;;;;30.05;11.50;;;21.30;59.20;;;;;;5091668;28;20118;-65
2023/04/09 10:22:53;;;;;;;31.17;11.27;;;21.30;59.10;;;;;;5077836;28;20060;-63
2023/04/09 10:25:19;;;;;;;26.77;10.40;;;21.30;59.00;;;;;;5092375;28;20407;-62
2023/04/09 10:27:47;;;;;;;26.83;10.20;;;21.30;58.90;;;;;;5092702;28;20040;-62
2023/04/09 10:30:42;;;;;;;35.40;11.07;;;21.30;58.90;;;;;;5092990;28;20044;-62
2023/04/09 10:33:12;;;;;;;29.67;11.38;;;21.30;59.00;;;;;;5080267;28;20135;-62
2023/04/09 10:35:38;;;;;;;21.50;10.35;;;21.40;59.00;;;;;;5093295;28;20040;-61
2023/04/09 10:38:07;;;;;;;24.20;10.65;;;21.40;58.80;;;;;;5092444;28;20390;-62
2023/04/09 10:40:33;;;;;;;24.90;11.27;;;21.40;58.90;;;;;;5093101;28;20403;-62
2023/04/09 10:42:58;;;;;;;32.10;11.18;;;21.40;58.90;;;;;;5091667;28;20048;-61
2023/04/09 10:45:25;;;;;;;22.42;10.85;;;21.40;58.70;;;;;;5074255;28;20476;-62
2023/04/09 10:47:51;;;;;;;24.00;10.82;;;21.40;58.70;;;;;;5091784;28;20477;-62
2023/04/09 10:50:29;;;;;;;20.95;10.82;;;21.40;58.80;;;;;;5091469;28;20158;-61
2023/04/09 10:52:57;;;;;;;22.98;10.95;;;21.40;58.80;;;;;;5090795;28;20055;-62
2023/04/09 10:55:38;;;;;;;20.93;10.73;;;21.40;58.60;;;;;;5092494;28;20051;-63
2023/04/09 10:58:05;;;;;;;19.45;11.02;;;21.40;58.30;;;;;;5092070;28;20101;-63
2023/04/09 11:00:31;;;;;;;20.23;11.02;;;21.50;58.30;;;;;;5103478;28;20044;-62
2023/04/09 11:03:05;;;;;;;19.50;10.90;;;21.50;58.10;;;;;;5111544;28;20050;-61
2023/04/09 11:05:37;;;;;;;20.20;10.40;;;21.40;58.00;;;;;;5112596;27;20047;-60
2023/04/09 11:08:06;;;;;;;20.02;11.50;;;21.50;57.90;;;;;;5112834;28;20058;-62
2023/04/09 11:10:35;;;;;;;19.80;10.07;;;21.50;57.60;;;;;;5111728;28;20050;-68
2023/04/09 11:13:01;;;;;;;15.55;9.10;;;21.40;57.40;;;;;;5110884;28;20050;-66
2023/04/09 11:15:26;;;;;;;22.40;10.65;;;21.50;57.30;;;;;;5112016;28;20051;-65
2023/04/09 11:17:52;;;;;;;18.42;10.13;;;21.50;57.10;;;;;;5111811;28;20510;-66
2023/04/09 11:20:22;;;;;;;17.05;9.52;;;21.50;57.00;;;;;;5110619;28;20139;-66
2023/04/09 11:22:52;;;;;;;14.85;9.13;;;21.50;57.00;;;;;;5111759;28;20075;-65
2023/04/09 11:25:22;;;;;;;18.42;9.80;;;21.40;57.00;;;;;;5111965;28;20406;-70
2023/04/09 11:27:48;;;;;;;19.45;10.25;;;21.40;56.90;;;;;;5100163;28;20040;-65
2023/04/09 11:30:14;;;;;;;17.35;9.32;;;21.40;56.90;;;;;;5091804;28;20051;-65
2023/04/09 11:32:39;;;;;;;21.45;9.73;;;21.40;56.60;;;;;;5092571;28;20036;-65
2023/04/09 11:35:11;;;;;;;18.55;10.10;;;21.40;56.60;;;;;;5091375;28;20123;-65
2023/04/09 11:37:37;;;;;;;18.92;10.05;;;21.40;56.50;;;;;;5093622;28;20044;-64
2023/04/09 11:40:03;;;;;;;19.35;10.50;;;21.40;56.40;;;;;;5095290;28;20044;-63
2023/04/09 11:42:30;;;;;;;19.33;11.02;;;21.30;56.40;;;;;;5096314;28;20048;-66
2023/04/09 11:44:55;;;;;;;20.52;10.10;;;21.30;55.50;;;;;;5096425;28;20533;-63
2023/04/09 11:47:21;;;;;;;27.05;10.90;;;21.30;55.50;;;;;;5085570;28;20059;-63
2023/04/09 11:49:47;;;;;;;20.25;11.18;;;21.30;55.50;;;;;;5071959;28;20166;-62
2023/04/09 11:52:15;;;;;;;19.20;11.18;;;21.30;55.50;;;;;;5073830;28;20063;-62
2023/04/09 11:54:41;;;;;;;18.35;9.88;;;21.30;55.40;;;;;;5084247;28;20040;-63
2023/04/09 11:57:06;;;;;;;21.67;11.15;;;21.30;55.50;;;;;;5099666;28;20047;-62
2023/04/09 11:59:32;;;;;;;19.83;10.93;;;21.30;55.40;;;;;;5087330;28;20123;-63
2023/04/09 12:01:57;;;;;;;19.60;10.05;;;21.30;55.30;;;;;;5090267;28;20399;-62
2023/04/09 12:04:23;;;;;;;19.90;10.82;;;21.40;55.50;;;;;;5084102;28;20402;-63
2023/04/09 12:06:49;;;;;;;20.25;10.80;;;21.30;55.50;;;;;;5085980;28;20395;-61
2023/04/09 12:09:15;;;;;;;20.08;10.60;;;21.30;55.50;;;;;;5085638;28;20127;-62
2023/04/09 12:11:43;;;;;;;18.75;10.10;;;21.40;55.50;;;;;;5086318;28;20502;-62
2023/04/09 12:14:13;;;;;;;18.10;9.90;;;21.40;56.10;;;;;;5081119;28;20049;-62
2023/04/09 12:16:43;;;;;;;19.88;10.10;;;21.40;55.40;;;;;;5082560;28;20064;-62
2023/04/09 12:19:09;;;;;;;16.35;10.43;;;21.40;55.40;;;;;;5083004;28;20411;-62
2023/04/09 12:21:47;;;;;;;17.55;10.05;;;21.40;55.40;;;;;;5084073;28;20056;-62
2023/04/09 12:24:14;;;;;;;18.77;10.18;;;21.40;55.30;;;;;;5085523;28;20040;-62
2023/04/09 12:26:39;;;;;;;18.20;9.55;;;21.40;55.30;;;;;;5084884;28;20068;-62
2023/04/09 12:29:05;;;;;;;17.15;9.77;;;21.40;55.30;;;;;;5084033;28;20063;-62
2023/04/09 12:31:30;;;;;;;15.65;9.80;;;21.40;55.30;;;;;;5080014;28;20487;-62
2023/04/09 12:33:56;;;;;;;18.20;9.95;;;21.40;55.30;;;;;;5085080;28;20037;-62
2023/04/09 12:36:22;;;;;;;15.50;9.50;;;21.40;55.30;;;;;;5082853;28;20056;-62